MQC88J FZAA-DRRN
Flight info
| Callsign | MQC88J |
|---|---|
| Flight time | 3h 26m |
| Altitude | 34000 |
| Route | BZ UG856 NAVTO/N0466F360 UG856 BIPIV UQ181 TENTU UR981 BORNI UL683 ERLOM UM629 VOSIP DCT BANGA ETROT1K |
| Aircraft | B738/M-SDE2E3FGHIRWXY/LB1 |
Departure
| Time | 2026-04-27 05:34 |
|---|---|
| Airport | Ndjili International Airport (FZAA) |
Arrival
| Time | 2026-04-27 09:01 |
|---|---|
| Airport | Diori Hamani International Airport (DRRN) |
| Time | Latitude | Longitude | Altitude | Speed | Heading |
|---|---|---|---|---|---|
| 2026-04-27 05:22 | -4.38843 | 15.44581 | 1010 ft | 0 kts | 203° |
| 2026-04-27 05:27 | -4.38850 | 15.44574 | 1010 ft | 5 kts | 228° |
| 2026-04-27 05:27 | -4.38837 | 15.44541 | 1010 ft | 6 kts | 336° |
| 2026-04-27 05:27 | -4.38793 | 15.44533 | 1010 ft | 7 kts | 351° |
| 2026-04-27 05:28 | -4.38745 | 15.44531 | 1010 ft | 7 kts | 359° |
| 2026-04-27 05:28 | -4.38698 | 15.44530 | 1011 ft | 7 kts | 359° |
| 2026-04-27 05:28 | -4.38652 | 15.44507 | 1011 ft | 10 kts | 319° |
| 2026-04-27 05:28 | -4.38601 | 15.44447 | 1011 ft | 14 kts | 283° |
| 2026-04-27 05:29 | -4.38649 | 15.44351 | 1011 ft | 18 kts | 239° |
| 2026-04-27 05:29 | -4.38726 | 15.44237 | 1010 ft | 21 kts | 235° |
| 2026-04-27 05:29 | -4.38810 | 15.44118 | 1008 ft | 21 kts | 235° |
| 2026-04-27 05:29 | -4.38891 | 15.44002 | 1008 ft | 20 kts | 235° |
| 2026-04-27 05:30 | -4.38969 | 15.43890 | 1008 ft | 19 kts | 234° |
| 2026-04-27 05:30 | -4.39041 | 15.43779 | 1007 ft | 19 kts | 239° |
| 2026-04-27 05:30 | -4.39108 | 15.43669 | 1008 ft | 18 kts | 238° |
| 2026-04-27 05:30 | -4.39174 | 15.43564 | 1008 ft | 17 kts | 238° |
| 2026-04-27 05:31 | -4.39237 | 15.43463 | 1008 ft | 17 kts | 237° |
| 2026-04-27 05:31 | -4.39299 | 15.43366 | 1009 ft | 16 kts | 237° |
| 2026-04-27 05:31 | -4.39360 | 15.43273 | 1008 ft | 16 kts | 237° |
| 2026-04-27 05:31 | -4.39419 | 15.43184 | 1007 ft | 15 kts | 236° |
| 2026-04-27 05:32 | -4.39476 | 15.43100 | 1006 ft | 14 kts | 236° |
| 2026-04-27 05:32 | -4.39531 | 15.43019 | 1006 ft | 14 kts | 235° |
| 2026-04-27 05:32 | -4.39585 | 15.42942 | 1004 ft | 13 kts | 235° |
| 2026-04-27 05:32 | -4.39637 | 15.42869 | 1004 ft | 13 kts | 234° |
| 2026-04-27 05:33 | -4.39688 | 15.42798 | 1004 ft | 12 kts | 234° |
| 2026-04-27 05:33 | -4.39697 | 15.42742 | 1004 ft | 9 kts | 350° |
| 2026-04-27 05:33 | -4.39671 | 15.42782 | 1004 ft | 9 kts | 118° |
| 2026-04-27 05:33 | -4.39665 | 15.42805 | 1004 ft | 3 kts | 56° |
| 2026-04-27 05:34 | -4.39586 | 15.42919 | 1004 ft | 55 kts | 56° |
| 2026-04-27 05:34 | -4.39221 | 15.43459 | 1008 ft | 130 kts | 56° |
| 2026-04-27 05:34 | -4.38613 | 15.44393 | 1099 ft | 183 kts | 57° |
| 2026-04-27 05:34 | -4.37900 | 15.45510 | 1814 ft | 200 kts | 57° |
| 2026-04-27 05:35 | -4.37136 | 15.46754 | 2401 ft | 220 kts | 56° |
| 2026-04-27 05:35 | -4.36296 | 15.48050 | 3089 ft | 229 kts | 56° |
| 2026-04-27 05:35 | -4.35376 | 15.49436 | 3496 ft | 244 kts | 56° |
| 2026-04-27 05:35 | -4.34427 | 15.50870 | 3939 ft | 254 kts | 56° |
| 2026-04-27 05:36 | -4.33322 | 15.52333 | 4195 ft | 271 kts | 40° |
| 2026-04-27 05:36 | -4.31672 | 15.53252 | 4788 ft | 275 kts | 14° |
| 2026-04-27 05:36 | -4.29778 | 15.53372 | 5417 ft | 278 kts | 348° |
| 2026-04-27 05:36 | -4.27993 | 15.52639 | 5998 ft | 281 kts | 321° |
| 2026-04-27 05:37 | -4.26725 | 15.51157 | 6545 ft | 284 kts | 294° |
| 2026-04-27 05:37 | -4.26239 | 15.49249 | 7108 ft | 287 kts | 266° |
| 2026-04-27 05:37 | -4.26565 | 15.47279 | 7708 ft | 289 kts | 256° |
| 2026-04-27 05:37 | -4.26931 | 15.45281 | 8224 ft | 295 kts | 263° |
| 2026-04-27 05:38 | -4.27048 | 15.43222 | 8811 ft | 298 kts | 269° |
| 2026-04-27 05:38 | -4.26985 | 15.41131 | 9358 ft | 302 kts | 273° |
| 2026-04-27 05:38 | -4.26821 | 15.39029 | 9927 ft | 304 kts | 275° |
| 2026-04-27 05:38 | -4.26600 | 15.36900 | 10348 ft | 314 kts | 276° |
| 2026-04-27 05:39 | -4.26339 | 15.34658 | 10477 ft | 333 kts | 277° |
| 2026-04-27 05:39 | -4.26049 | 15.32298 | 10616 ft | 350 kts | 277° |
| 2026-04-27 05:39 | -4.25742 | 15.29831 | 10746 ft | 365 kts | 277° |
| 2026-04-27 05:39 | -4.25391 | 15.27272 | 11024 ft | 375 kts | 282° |
| 2026-04-27 05:40 | -4.24500 | 15.24806 | 11459 ft | 378 kts | 296° |
| 2026-04-27 05:40 | -4.23251 | 15.22493 | 12012 ft | 379 kts | 302° |
| 2026-04-27 05:40 | -4.21765 | 15.20310 | 12555 ft | 380 kts | 308° |
| 2026-04-27 05:40 | -4.20121 | 15.18224 | 13063 ft | 383 kts | 310° |
| 2026-04-27 05:41 | -4.18409 | 15.16168 | 13522 ft | 386 kts | 311° |
| 2026-04-27 05:41 | -4.16666 | 15.14101 | 13996 ft | 390 kts | 311° |
| 2026-04-27 05:41 | -4.14917 | 15.12017 | 14480 ft | 393 kts | 311° |
| 2026-04-27 05:41 | -4.13166 | 15.09908 | 14990 ft | 395 kts | 310° |
| 2026-04-27 05:42 | -4.11412 | 15.07773 | 15472 ft | 398 kts | 310° |
| 2026-04-27 05:42 | -4.09651 | 15.05616 | 15953 ft | 401 kts | 310° |
| 2026-04-27 05:42 | -4.07881 | 15.03436 | 16404 ft | 405 kts | 310° |
| 2026-04-27 05:42 | -4.06102 | 15.01241 | 16877 ft | 407 kts | 310° |
| 2026-04-27 05:43 | -4.04313 | 14.99031 | 17330 ft | 410 kts | 310° |
| 2026-04-27 05:43 | -4.02510 | 14.96803 | 17782 ft | 413 kts | 310° |
| 2026-04-27 05:43 | -4.00694 | 14.94558 | 18212 ft | 416 kts | 310° |
| 2026-04-27 05:43 | -3.98869 | 14.92304 | 18618 ft | 419 kts | 310° |
| 2026-04-27 05:44 | -3.97029 | 14.90033 | 19014 ft | 421 kts | 310° |
| 2026-04-27 05:44 | -3.95180 | 14.87750 | 19432 ft | 423 kts | 310° |
| 2026-04-27 05:44 | -3.93320 | 14.85456 | 19806 ft | 426 kts | 310° |
| 2026-04-27 05:44 | -3.91447 | 14.83143 | 20174 ft | 428 kts | 310° |
| 2026-04-27 05:45 | -3.89563 | 14.80819 | 20527 ft | 431 kts | 310° |
| 2026-04-27 05:45 | -3.87669 | 14.78482 | 20870 ft | 433 kts | 310° |
| 2026-04-27 05:45 | -3.85768 | 14.76135 | 21213 ft | 435 kts | 310° |
| 2026-04-27 05:45 | -3.83854 | 14.73773 | 21549 ft | 437 kts | 310° |
| 2026-04-27 05:46 | -3.82585 | 14.72207 | 21752 ft | 439 kts | 310° |
| 2026-04-27 05:46 | -3.80029 | 14.69053 | 22145 ft | 442 kts | 310° |
| 2026-04-27 05:46 | -3.78084 | 14.66655 | 22428 ft | 444 kts | 310° |
| 2026-04-27 05:46 | -3.76131 | 14.64247 | 22702 ft | 447 kts | 310° |
| 2026-04-27 05:47 | -3.74168 | 14.61826 | 22973 ft | 449 kts | 310° |
| 2026-04-27 05:47 | -3.72839 | 14.60186 | 23154 ft | 450 kts | 310° |
| 2026-04-27 05:47 | -3.70861 | 14.57745 | 23431 ft | 452 kts | 310° |
| 2026-04-27 05:47 | -3.68873 | 14.55293 | 23689 ft | 454 kts | 310° |
| 2026-04-27 05:48 | -3.66880 | 14.52835 | 23928 ft | 456 kts | 310° |
| 2026-04-27 05:48 | -3.64902 | 14.50396 | 24173 ft | 458 kts | 310° |
| 2026-04-27 05:48 | -3.62891 | 14.47917 | 24414 ft | 460 kts | 310° |
| 2026-04-27 05:48 | -3.60871 | 14.45428 | 24660 ft | 461 kts | 310° |
| 2026-04-27 05:49 | -3.58846 | 14.42932 | 24885 ft | 463 kts | 310° |
| 2026-04-27 05:49 | -3.56814 | 14.40426 | 25109 ft | 464 kts | 310° |
| 2026-04-27 05:49 | -3.54775 | 14.37913 | 25340 ft | 466 kts | 310° |
| 2026-04-27 05:49 | -3.52731 | 14.35393 | 25566 ft | 467 kts | 310° |
| 2026-04-27 05:50 | -3.50652 | 14.32831 | 25779 ft | 469 kts | 310° |
| 2026-04-27 05:50 | -3.48593 | 14.30294 | 25987 ft | 470 kts | 310° |
| 2026-04-27 05:50 | -3.46557 | 14.27784 | 26195 ft | 471 kts | 310° |
| 2026-04-27 05:50 | -3.44487 | 14.25234 | 26398 ft | 473 kts | 310° |
| 2026-04-27 05:51 | -3.42411 | 14.22676 | 26615 ft | 474 kts | 310° |
| 2026-04-27 05:51 | -3.40326 | 14.20108 | 26808 ft | 475 kts | 310° |
| 2026-04-27 05:51 | -3.38241 | 14.17540 | 26991 ft | 477 kts | 310° |
| 2026-04-27 05:51 | -3.36145 | 14.14959 | 27188 ft | 478 kts | 310° |
| 2026-04-27 05:52 | -3.34047 | 14.12376 | 27389 ft | 479 kts | 310° |
| 2026-04-27 05:52 | -3.31944 | 14.09785 | 27565 ft | 480 kts | 310° |
| 2026-04-27 05:52 | -3.29834 | 14.07188 | 27729 ft | 482 kts | 310° |
| 2026-04-27 05:52 | -3.27717 | 14.04586 | 27917 ft | 483 kts | 310° |
| 2026-04-27 05:53 | -3.25598 | 14.01977 | 28099 ft | 484 kts | 310° |
| 2026-04-27 05:53 | -3.23475 | 13.99360 | 28254 ft | 485 kts | 310° |
| 2026-04-27 05:53 | -3.21345 | 13.96737 | 28405 ft | 486 kts | 310° |
| 2026-04-27 05:53 | -3.19215 | 13.94113 | 28557 ft | 487 kts | 310° |
| 2026-04-27 05:54 | -3.17075 | 13.91477 | 28706 ft | 488 kts | 310° |
| 2026-04-27 05:54 | -3.14904 | 13.88805 | 28858 ft | 489 kts | 310° |
| 2026-04-27 05:54 | -3.12756 | 13.86163 | 29005 ft | 490 kts | 310° |
| 2026-04-27 05:54 | -3.10605 | 13.83516 | 29158 ft | 490 kts | 310° |
| 2026-04-27 05:55 | -3.08454 | 13.80868 | 29391 ft | 489 kts | 310° |
| 2026-04-27 05:55 | -3.06310 | 13.78230 | 29671 ft | 487 kts | 310° |
| 2026-04-27 05:55 | -3.04173 | 13.75601 | 29916 ft | 486 kts | 310° |
| 2026-04-27 05:55 | -3.02040 | 13.72977 | 30108 ft | 486 kts | 310° |
| 2026-04-27 05:56 | -2.99903 | 13.70349 | 30287 ft | 487 kts | 310° |
| 2026-04-27 05:56 | -2.97796 | 13.67756 | 30510 ft | 486 kts | 310° |
| 2026-04-27 05:56 | -2.95665 | 13.65135 | 30760 ft | 485 kts | 310° |
| 2026-04-27 05:56 | -2.93513 | 13.62488 | 30997 ft | 484 kts | 310° |
| 2026-04-27 05:57 | -2.91386 | 13.59873 | 31224 ft | 484 kts | 310° |
| 2026-04-27 05:57 | -2.89266 | 13.57265 | 31461 ft | 483 kts | 310° |
| 2026-04-27 05:57 | -2.87176 | 13.54695 | 31682 ft | 482 kts | 310° |
| 2026-04-27 05:57 | -2.85033 | 13.52059 | 31905 ft | 482 kts | 310° |
| 2026-04-27 05:58 | -2.82917 | 13.49459 | 32102 ft | 482 kts | 310° |
| 2026-04-27 05:58 | -2.80802 | 13.46858 | 32316 ft | 481 kts | 310° |
| 2026-04-27 05:58 | -2.78692 | 13.44264 | 32561 ft | 480 kts | 310° |
| 2026-04-27 05:58 | -2.76589 | 13.41677 | 32789 ft | 479 kts | 310° |
| 2026-04-27 05:59 | -2.74484 | 13.39090 | 32978 ft | 479 kts | 310° |
| 2026-04-27 05:59 | -2.72381 | 13.36505 | 33193 ft | 479 kts | 310° |
| 2026-04-27 05:59 | -2.70281 | 13.33924 | 33449 ft | 478 kts | 310° |
| 2026-04-27 05:59 | -2.68187 | 13.31350 | 33696 ft | 476 kts | 310° |
| 2026-04-27 06:00 | -2.64009 | 13.26216 | 34099 ft | 476 kts | 310° |
| 2026-04-27 06:00 | -2.61922 | 13.23651 | 34321 ft | 475 kts | 310° |
| 2026-04-27 06:00 | -2.59839 | 13.21092 | 34532 ft | 474 kts | 310° |
| 2026-04-27 06:01 | -2.57758 | 13.18535 | 34713 ft | 474 kts | 310° |
| 2026-04-27 06:01 | -2.55674 | 13.15974 | 34878 ft | 475 kts | 310° |
| 2026-04-27 06:01 | -2.53591 | 13.13414 | 35064 ft | 474 kts | 311° |
| 2026-04-27 06:01 | -2.51514 | 13.10862 | 35241 ft | 474 kts | 311° |
| 2026-04-27 06:02 | -2.49435 | 13.08307 | 35397 ft | 474 kts | 311° |
| 2026-04-27 06:02 | -2.47355 | 13.05753 | 35577 ft | 473 kts | 311° |
| 2026-04-27 06:02 | -2.45281 | 13.03202 | 35766 ft | 472 kts | 310° |
| 2026-04-27 06:02 | -2.43218 | 13.00651 | 35932 ft | 472 kts | 310° |
| 2026-04-27 06:03 | -2.39087 | 12.95523 | 36010 ft | 475 kts | 310° |
| 2026-04-27 06:03 | -2.34953 | 12.90387 | 36018 ft | 472 kts | 310° |
| 2026-04-27 06:04 | -2.30840 | 12.85284 | 36013 ft | 470 kts | 311° |
| 2026-04-27 06:04 | -2.26748 | 12.80209 | 36019 ft | 468 kts | 311° |
| 2026-04-27 06:05 | -2.22692 | 12.75181 | 36016 ft | 467 kts | 311° |
| 2026-04-27 06:05 | -2.18586 | 12.70090 | 36022 ft | 467 kts | 311° |
| 2026-04-27 06:06 | -2.14500 | 12.65026 | 36012 ft | 468 kts | 311° |
| 2026-04-27 06:06 | -2.10409 | 12.59955 | 36011 ft | 469 kts | 311° |
| 2026-04-27 06:07 | -2.06302 | 12.54862 | 36012 ft | 471 kts | 311° |
| 2026-04-27 06:07 | -2.02184 | 12.49757 | 36012 ft | 472 kts | 311° |
| 2026-04-27 06:08 | -1.98051 | 12.44637 | 36019 ft | 474 kts | 311° |
| 2026-04-27 06:08 | -1.93906 | 12.39495 | 36003 ft | 476 kts | 311° |
| 2026-04-27 06:09 | -1.89752 | 12.34342 | 36005 ft | 476 kts | 311° |
| 2026-04-27 06:09 | -1.85585 | 12.29194 | 36012 ft | 476 kts | 311° |
| 2026-04-27 06:10 | -1.81422 | 12.24037 | 36004 ft | 476 kts | 311° |
| 2026-04-27 06:10 | -1.77268 | 12.18886 | 35998 ft | 475 kts | 311° |
| 2026-04-27 06:11 | -1.73124 | 12.13752 | 35996 ft | 474 kts | 311° |
| 2026-04-27 06:11 | -1.68989 | 12.08634 | 36005 ft | 473 kts | 311° |
| 2026-04-27 06:12 | -1.64862 | 12.03535 | 35991 ft | 471 kts | 311° |
| 2026-04-27 06:12 | -1.60739 | 11.98442 | 35985 ft | 470 kts | 311° |
| 2026-04-27 06:13 | -1.56632 | 11.93365 | 35998 ft | 469 kts | 311° |
| 2026-04-27 06:13 | -1.52528 | 11.88292 | 35994 ft | 469 kts | 311° |
| 2026-04-27 06:14 | -1.48419 | 11.83215 | 35995 ft | 470 kts | 311° |
| 2026-04-27 06:14 | -1.44311 | 11.78136 | 36004 ft | 470 kts | 311° |
| 2026-04-27 06:15 | -1.40201 | 11.73057 | 36001 ft | 470 kts | 311° |
| 2026-04-27 06:15 | -1.36092 | 11.67975 | 35998 ft | 470 kts | 311° |
| 2026-04-27 06:16 | -1.31979 | 11.62881 | 35992 ft | 471 kts | 311° |
| 2026-04-27 06:16 | -1.27864 | 11.57785 | 35997 ft | 471 kts | 311° |
| 2026-04-27 06:17 | -1.23751 | 11.52693 | 35998 ft | 471 kts | 311° |
| 2026-04-27 06:17 | -1.19636 | 11.47600 | 35997 ft | 471 kts | 310° |
| 2026-04-27 06:18 | -1.15518 | 11.42500 | 35995 ft | 471 kts | 310° |
| 2026-04-27 06:18 | -1.11403 | 11.37405 | 35979 ft | 471 kts | 311° |
| 2026-04-27 06:19 | -1.07292 | 11.32315 | 35979 ft | 470 kts | 310° |
| 2026-04-27 06:19 | -1.03194 | 11.27244 | 35981 ft | 469 kts | 311° |
| 2026-04-27 06:20 | -0.99104 | 11.22181 | 35982 ft | 468 kts | 311° |
| 2026-04-27 06:20 | -0.95026 | 11.17132 | 35966 ft | 466 kts | 311° |
| 2026-04-27 06:21 | -0.90959 | 11.12097 | 35970 ft | 465 kts | 311° |
| 2026-04-27 06:21 | -0.86923 | 11.07101 | 35980 ft | 464 kts | 311° |
| 2026-04-27 06:22 | -0.82863 | 11.02079 | 35972 ft | 465 kts | 311° |
| 2026-04-27 06:22 | -0.78804 | 10.97054 | 35977 ft | 464 kts | 311° |
| 2026-04-27 06:23 | -0.74744 | 10.92028 | 35983 ft | 465 kts | 311° |
| 2026-04-27 06:23 | -0.70679 | 10.86999 | 35980 ft | 465 kts | 311° |
| 2026-04-27 06:24 | -0.66611 | 10.81967 | 35967 ft | 466 kts | 311° |
| 2026-04-27 06:24 | -0.62535 | 10.76923 | 35967 ft | 467 kts | 311° |
| 2026-04-27 06:25 | -0.58432 | 10.71846 | 35956 ft | 467 kts | 311° |
| 2026-04-27 06:25 | -0.54352 | 10.66797 | 35968 ft | 467 kts | 311° |
| 2026-04-27 06:26 | -0.50296 | 10.61777 | 35964 ft | 468 kts | 311° |
| 2026-04-27 06:26 | -0.46206 | 10.56718 | 35960 ft | 468 kts | 311° |
| 2026-04-27 06:27 | -0.42773 | 10.52471 | 35955 ft | 469 kts | 311° |
| 2026-04-27 06:27 | -0.38678 | 10.47403 | 35953 ft | 469 kts | 311° |
| 2026-04-27 06:28 | -0.34587 | 10.42337 | 35956 ft | 469 kts | 311° |
| 2026-04-27 06:28 | -0.30479 | 10.37257 | 35954 ft | 470 kts | 311° |
| 2026-04-27 06:29 | -0.26386 | 10.32194 | 35947 ft | 466 kts | 311° |
| 2026-04-27 06:29 | -0.22322 | 10.27171 | 35940 ft | 464 kts | 311° |
| 2026-04-27 06:30 | -0.18281 | 10.22176 | 35944 ft | 461 kts | 311° |
| 2026-04-27 06:30 | -0.14253 | 10.17195 | 35944 ft | 460 kts | 311° |
| 2026-04-27 06:31 | -0.10228 | 10.12217 | 35948 ft | 461 kts | 311° |
| 2026-04-27 06:31 | -0.06189 | 10.07224 | 35941 ft | 463 kts | 311° |
| 2026-04-27 06:32 | -0.02132 | 10.02207 | 35941 ft | 465 kts | 311° |
| 2026-04-27 06:32 | 0.01943 | 9.97168 | 35938 ft | 467 kts | 311° |
| 2026-04-27 06:33 | 0.06036 | 9.92106 | 35939 ft | 469 kts | 311° |
| 2026-04-27 06:33 | 0.10120 | 9.87056 | 35930 ft | 471 kts | 311° |
| 2026-04-27 06:34 | 0.14244 | 9.81955 | 35923 ft | 472 kts | 311° |
| 2026-04-27 06:34 | 0.18374 | 9.76848 | 35925 ft | 472 kts | 310° |
| 2026-04-27 06:35 | 0.22494 | 9.71748 | 35911 ft | 471 kts | 310° |
| 2026-04-27 06:35 | 0.26613 | 9.66656 | 35912 ft | 470 kts | 311° |
| 2026-04-27 06:36 | 0.30722 | 9.61575 | 35920 ft | 470 kts | 311° |
| 2026-04-27 06:36 | 0.34826 | 9.56501 | 35915 ft | 469 kts | 311° |
| 2026-04-27 06:37 | 0.38920 | 9.51435 | 35918 ft | 468 kts | 310° |
| 2026-04-27 06:37 | 0.43006 | 9.46379 | 35914 ft | 467 kts | 311° |
| 2026-04-27 06:38 | 0.47091 | 9.41328 | 35916 ft | 467 kts | 311° |
| 2026-04-27 06:38 | 0.51432 | 9.36518 | 35918 ft | 465 kts | 317° |
| 2026-04-27 06:39 | 0.56135 | 9.32098 | 35919 ft | 464 kts | 319° |
| 2026-04-27 06:39 | 0.60867 | 9.27691 | 35918 ft | 465 kts | 318° |
| 2026-04-27 06:40 | 0.65540 | 9.23222 | 35916 ft | 465 kts | 317° |
| 2026-04-27 06:40 | 0.70183 | 9.18720 | 35918 ft | 465 kts | 317° |
| 2026-04-27 06:41 | 0.74826 | 9.14210 | 35916 ft | 465 kts | 317° |
| 2026-04-27 06:41 | 0.79471 | 9.09704 | 35919 ft | 466 kts | 317° |
| 2026-04-27 06:42 | 0.84121 | 9.05196 | 35917 ft | 466 kts | 317° |
| 2026-04-27 06:42 | 0.88776 | 9.00683 | 35914 ft | 467 kts | 317° |
| 2026-04-27 06:43 | 0.93446 | 8.96158 | 35917 ft | 468 kts | 317° |
| 2026-04-27 06:43 | 0.98121 | 8.91623 | 35915 ft | 468 kts | 317° |
| 2026-04-27 06:44 | 1.02799 | 8.87088 | 35919 ft | 469 kts | 317° |
| 2026-04-27 06:44 | 1.07491 | 8.82538 | 35918 ft | 470 kts | 317° |
| 2026-04-27 06:45 | 1.12182 | 8.77989 | 35914 ft | 470 kts | 317° |
| 2026-04-27 06:45 | 1.16870 | 8.73440 | 35918 ft | 470 kts | 317° |
| 2026-04-27 06:46 | 1.21561 | 8.68893 | 35907 ft | 470 kts | 317° |
| 2026-04-27 06:46 | 1.26254 | 8.64353 | 35906 ft | 469 kts | 317° |
| 2026-04-27 06:47 | 1.30942 | 8.59819 | 35906 ft | 469 kts | 317° |
| 2026-04-27 06:47 | 1.35621 | 8.55293 | 35907 ft | 468 kts | 317° |
| 2026-04-27 06:48 | 1.40298 | 8.50764 | 35903 ft | 468 kts | 317° |
| 2026-04-27 06:48 | 1.44968 | 8.46246 | 35910 ft | 467 kts | 317° |
| 2026-04-27 06:49 | 1.49637 | 8.41727 | 35908 ft | 467 kts | 317° |
| 2026-04-27 06:49 | 1.54304 | 8.37209 | 35906 ft | 467 kts | 317° |
| 2026-04-27 06:50 | 1.58972 | 8.32688 | 35907 ft | 467 kts | 317° |
| 2026-04-27 06:50 | 1.63642 | 8.28166 | 35908 ft | 468 kts | 317° |
| 2026-04-27 06:51 | 1.68319 | 8.23638 | 35909 ft | 468 kts | 317° |
| 2026-04-27 06:51 | 1.73004 | 8.19100 | 35912 ft | 469 kts | 317° |
| 2026-04-27 06:52 | 1.77694 | 8.14559 | 35906 ft | 470 kts | 317° |
| 2026-04-27 06:52 | 1.82391 | 8.10008 | 35897 ft | 470 kts | 317° |
| 2026-04-27 06:53 | 1.87091 | 8.05456 | 35901 ft | 471 kts | 317° |
| 2026-04-27 06:53 | 1.91793 | 8.00900 | 35899 ft | 471 kts | 317° |
| 2026-04-27 06:54 | 1.96501 | 7.96348 | 35905 ft | 471 kts | 317° |
| 2026-04-27 06:54 | 2.01214 | 7.91796 | 35909 ft | 471 kts | 317° |
| 2026-04-27 06:55 | 2.05921 | 7.87248 | 35908 ft | 471 kts | 317° |
| 2026-04-27 06:55 | 2.10623 | 7.82701 | 35904 ft | 470 kts | 317° |
| 2026-04-27 06:56 | 2.15324 | 7.78156 | 35909 ft | 470 kts | 317° |
| 2026-04-27 06:56 | 2.19991 | 7.73646 | 35907 ft | 470 kts | 317° |
| 2026-04-27 06:57 | 2.24687 | 7.69106 | 35909 ft | 470 kts | 317° |
| 2026-04-27 06:57 | 2.29385 | 7.64560 | 35906 ft | 469 kts | 317° |
| 2026-04-27 06:58 | 2.36423 | 7.57751 | 35908 ft | 469 kts | 317° |
| 2026-04-27 06:59 | 2.41115 | 7.53213 | 35906 ft | 469 kts | 317° |
| 2026-04-27 06:59 | 2.45800 | 7.48678 | 35907 ft | 469 kts | 317° |
| 2026-04-27 07:00 | 2.50485 | 7.44147 | 35906 ft | 468 kts | 317° |
| 2026-04-27 07:00 | 2.55158 | 7.39611 | 35908 ft | 468 kts | 316° |
| 2026-04-27 07:01 | 2.59803 | 7.35054 | 35906 ft | 468 kts | 316° |
| 2026-04-27 07:01 | 2.64440 | 7.30495 | 35910 ft | 467 kts | 316° |
| 2026-04-27 07:02 | 2.69086 | 7.25934 | 35908 ft | 468 kts | 316° |
| 2026-04-27 07:02 | 2.73731 | 7.21376 | 35907 ft | 468 kts | 316° |
| 2026-04-27 07:03 | 2.78371 | 7.16821 | 35905 ft | 467 kts | 316° |
| 2026-04-27 07:03 | 2.83010 | 7.12270 | 35908 ft | 467 kts | 316° |
| 2026-04-27 07:04 | 2.87643 | 7.07723 | 35909 ft | 467 kts | 316° |
| 2026-04-27 07:04 | 2.92276 | 7.03175 | 35907 ft | 467 kts | 316° |
| 2026-04-27 07:05 | 2.96910 | 6.98624 | 35907 ft | 467 kts | 316° |
| 2026-04-27 07:05 | 3.01540 | 6.94079 | 35907 ft | 466 kts | 316° |
| 2026-04-27 07:06 | 3.06175 | 6.89527 | 35909 ft | 467 kts | 316° |
| 2026-04-27 07:06 | 3.10803 | 6.84980 | 35906 ft | 467 kts | 316° |
| 2026-04-27 07:07 | 3.15435 | 6.80429 | 35908 ft | 466 kts | 316° |
| 2026-04-27 07:07 | 3.20402 | 6.76302 | 35911 ft | 464 kts | 330° |
| 2026-04-27 07:08 | 3.25085 | 6.73703 | 35908 ft | 463 kts | 332° |
| 2026-04-27 07:08 | 3.30542 | 6.70257 | 35903 ft | 464 kts | 326° |
| 2026-04-27 07:09 | 3.35869 | 6.66588 | 35898 ft | 465 kts | 327° |
| 2026-04-27 07:09 | 3.41282 | 6.63046 | 35900 ft | 465 kts | 328° |
| 2026-04-27 07:10 | 3.46736 | 6.59552 | 35898 ft | 465 kts | 328° |
| 2026-04-27 07:10 | 3.52185 | 6.56044 | 35898 ft | 466 kts | 328° |
| 2026-04-27 07:11 | 3.57636 | 6.52526 | 35898 ft | 466 kts | 328° |
| 2026-04-27 07:11 | 3.63096 | 6.49001 | 35899 ft | 467 kts | 328° |
| 2026-04-27 07:12 | 3.68561 | 6.45471 | 35889 ft | 468 kts | 328° |
| 2026-04-27 07:12 | 3.74028 | 6.41942 | 35888 ft | 467 kts | 328° |
| 2026-04-27 07:13 | 3.79490 | 6.38416 | 35891 ft | 467 kts | 328° |
| 2026-04-27 07:13 | 3.84954 | 6.34888 | 35899 ft | 467 kts | 328° |
| 2026-04-27 07:14 | 3.90420 | 6.31358 | 35899 ft | 467 kts | 328° |
| 2026-04-27 07:14 | 3.95884 | 6.27826 | 35893 ft | 467 kts | 327° |
| 2026-04-27 07:15 | 4.01345 | 6.24298 | 35888 ft | 467 kts | 328° |
| 2026-04-27 07:15 | 4.06802 | 6.20772 | 35890 ft | 466 kts | 327° |
| 2026-04-27 07:16 | 4.12255 | 6.17247 | 35887 ft | 467 kts | 327° |
| 2026-04-27 07:16 | 4.17712 | 6.13719 | 35880 ft | 467 kts | 327° |
| 2026-04-27 07:17 | 4.23165 | 6.10193 | 35884 ft | 467 kts | 328° |
| 2026-04-27 07:17 | 4.28621 | 6.06664 | 35869 ft | 467 kts | 327° |
| 2026-04-27 07:18 | 4.34134 | 6.03214 | 35880 ft | 467 kts | 329° |
| 2026-04-27 07:18 | 4.39724 | 5.99905 | 35883 ft | 466 kts | 330° |
| 2026-04-27 07:19 | 4.45313 | 5.96602 | 35878 ft | 467 kts | 330° |
| 2026-04-27 07:19 | 4.50891 | 5.93272 | 35872 ft | 467 kts | 329° |
| 2026-04-27 07:20 | 4.56464 | 5.89930 | 35875 ft | 467 kts | 329° |
| 2026-04-27 07:20 | 4.62034 | 5.86587 | 35874 ft | 467 kts | 329° |
| 2026-04-27 07:21 | 4.67606 | 5.83245 | 35875 ft | 467 kts | 329° |
| 2026-04-27 07:21 | 4.73180 | 5.79901 | 35875 ft | 467 kts | 329° |
| 2026-04-27 07:22 | 4.78755 | 5.76557 | 35859 ft | 467 kts | 329° |
| 2026-04-27 07:22 | 4.84331 | 5.73211 | 35876 ft | 467 kts | 329° |
| 2026-04-27 07:23 | 4.89900 | 5.69868 | 35864 ft | 466 kts | 329° |
| 2026-04-27 07:23 | 4.95464 | 5.66528 | 35863 ft | 466 kts | 329° |
| 2026-04-27 07:24 | 5.01029 | 5.63185 | 35874 ft | 466 kts | 329° |
| 2026-04-27 07:24 | 5.06551 | 5.59774 | 35871 ft | 466 kts | 327° |
| 2026-04-27 07:25 | 5.11891 | 5.56085 | 35873 ft | 466 kts | 325° |
| 2026-04-27 07:25 | 5.17191 | 5.52330 | 35866 ft | 466 kts | 325° |
| 2026-04-27 07:26 | 5.22510 | 5.48609 | 35864 ft | 467 kts | 325° |
| 2026-04-27 07:26 | 5.27854 | 5.44907 | 35850 ft | 467 kts | 325° |
| 2026-04-27 07:27 | 5.33201 | 5.41213 | 35867 ft | 467 kts | 325° |
| 2026-04-27 07:27 | 5.38543 | 5.37520 | 35860 ft | 467 kts | 325° |
| 2026-04-27 07:28 | 5.43894 | 5.33817 | 35865 ft | 467 kts | 325° |
| 2026-04-27 07:28 | 5.49248 | 5.30111 | 35862 ft | 467 kts | 325° |
| 2026-04-27 07:29 | 5.54602 | 5.26405 | 35855 ft | 467 kts | 325° |
| 2026-04-27 07:29 | 5.59951 | 5.22700 | 35876 ft | 467 kts | 325° |
| 2026-04-27 07:30 | 5.65302 | 5.18992 | 35883 ft | 467 kts | 325° |
| 2026-04-27 07:30 | 5.70650 | 5.15286 | 35891 ft | 467 kts | 325° |
| 2026-04-27 07:31 | 5.75999 | 5.11580 | 35889 ft | 467 kts | 325° |
| 2026-04-27 07:31 | 5.81349 | 5.07870 | 35890 ft | 467 kts | 325° |
| 2026-04-27 07:32 | 5.86696 | 5.04163 | 35898 ft | 467 kts | 325° |
| 2026-04-27 07:32 | 5.92057 | 5.00471 | 35898 ft | 467 kts | 326° |
| 2026-04-27 07:33 | 5.97509 | 4.96916 | 35900 ft | 467 kts | 327° |
| 2026-04-27 07:33 | 6.02979 | 4.93387 | 35901 ft | 467 kts | 327° |
| 2026-04-27 07:34 | 6.08429 | 4.89838 | 35904 ft | 467 kts | 327° |
| 2026-04-27 07:34 | 6.13870 | 4.86279 | 35909 ft | 467 kts | 327° |
| 2026-04-27 07:35 | 6.19319 | 4.82716 | 35907 ft | 467 kts | 327° |
| 2026-04-27 07:35 | 6.24772 | 4.79158 | 35898 ft | 468 kts | 327° |
| 2026-04-27 07:36 | 6.30236 | 4.75596 | 35899 ft | 468 kts | 327° |
| 2026-04-27 07:36 | 6.35696 | 4.72034 | 35898 ft | 468 kts | 327° |
| 2026-04-27 07:37 | 6.41156 | 4.68469 | 35909 ft | 468 kts | 327° |
| 2026-04-27 07:37 | 6.46614 | 4.64904 | 35906 ft | 468 kts | 327° |
| 2026-04-27 07:38 | 6.52072 | 4.61339 | 35907 ft | 468 kts | 327° |
| 2026-04-27 07:38 | 6.57525 | 4.57770 | 35906 ft | 468 kts | 327° |
| 2026-04-27 07:39 | 6.62973 | 4.54195 | 35915 ft | 468 kts | 327° |
| 2026-04-27 07:39 | 6.68423 | 4.50619 | 35916 ft | 468 kts | 326° |
| 2026-04-27 07:40 | 6.73875 | 4.47035 | 35922 ft | 468 kts | 326° |
| 2026-04-27 07:40 | 6.79330 | 4.43454 | 35915 ft | 468 kts | 326° |
| 2026-04-27 07:41 | 6.84784 | 4.39880 | 35921 ft | 468 kts | 327° |
| 2026-04-27 07:41 | 6.90238 | 4.36306 | 35913 ft | 468 kts | 327° |
| 2026-04-27 07:42 | 6.95693 | 4.32731 | 35919 ft | 468 kts | 326° |
| 2026-04-27 07:42 | 7.01151 | 4.29150 | 35914 ft | 468 kts | 326° |
| 2026-04-27 07:43 | 7.06603 | 4.25572 | 35904 ft | 468 kts | 326° |
| 2026-04-27 07:43 | 7.12054 | 4.21994 | 35909 ft | 468 kts | 326° |
| 2026-04-27 07:44 | 7.17505 | 4.18414 | 35906 ft | 468 kts | 326° |
| 2026-04-27 07:44 | 7.22964 | 4.14828 | 35898 ft | 469 kts | 326° |
| 2026-04-27 07:45 | 7.28427 | 4.11239 | 35901 ft | 469 kts | 326° |
| 2026-04-27 07:45 | 7.33898 | 4.07643 | 35884 ft | 470 kts | 326° |
| 2026-04-27 07:46 | 7.39369 | 4.04045 | 35890 ft | 470 kts | 326° |
| 2026-04-27 07:46 | 7.44838 | 4.00446 | 35890 ft | 469 kts | 326° |
| 2026-04-27 07:47 | 7.50301 | 3.96841 | 35885 ft | 469 kts | 326° |
| 2026-04-27 07:47 | 7.55753 | 3.93238 | 35888 ft | 469 kts | 326° |
| 2026-04-27 07:48 | 7.61174 | 3.89656 | 35890 ft | 469 kts | 326° |
| 2026-04-27 07:48 | 7.66632 | 3.86051 | 35887 ft | 469 kts | 326° |
| 2026-04-27 07:49 | 7.71204 | 3.83030 | 35890 ft | 469 kts | 326° |
| 2026-04-27 07:49 | 7.76660 | 3.79423 | 35889 ft | 469 kts | 326° |
| 2026-04-27 07:50 | 7.82119 | 3.75813 | 35895 ft | 469 kts | 326° |
| 2026-04-27 07:50 | 7.87575 | 3.72203 | 35900 ft | 469 kts | 326° |
| 2026-04-27 07:51 | 7.93026 | 3.68597 | 35899 ft | 469 kts | 326° |
| 2026-04-27 07:51 | 7.98481 | 3.64986 | 35898 ft | 469 kts | 326° |
| 2026-04-27 07:52 | 8.03939 | 3.61373 | 35900 ft | 469 kts | 326° |
| 2026-04-27 07:52 | 8.09391 | 3.57762 | 35908 ft | 469 kts | 326° |
| 2026-04-27 07:53 | 8.14844 | 3.54148 | 35907 ft | 469 kts | 326° |
| 2026-04-27 07:53 | 8.20300 | 3.50531 | 35908 ft | 469 kts | 326° |
| 2026-04-27 07:54 | 8.25763 | 3.46909 | 35905 ft | 470 kts | 326° |
| 2026-04-27 07:54 | 8.31226 | 3.43285 | 35908 ft | 470 kts | 326° |
| 2026-04-27 07:55 | 8.36665 | 3.39690 | 35915 ft | 470 kts | 326° |
| 2026-04-27 07:55 | 8.42181 | 3.36050 | 35916 ft | 471 kts | 326° |
| 2026-04-27 07:56 | 8.47660 | 3.32431 | 35920 ft | 471 kts | 326° |
| 2026-04-27 07:56 | 8.53103 | 3.28832 | 35927 ft | 471 kts | 326° |
| 2026-04-27 07:57 | 8.58629 | 3.25178 | 35936 ft | 471 kts | 326° |
| 2026-04-27 07:57 | 8.64071 | 3.21578 | 35936 ft | 471 kts | 326° |
| 2026-04-27 07:58 | 8.69584 | 3.17927 | 35944 ft | 471 kts | 326° |
| 2026-04-27 07:58 | 8.75024 | 3.14322 | 35944 ft | 470 kts | 326° |
| 2026-04-27 07:59 | 8.80535 | 3.10667 | 35946 ft | 471 kts | 326° |
| 2026-04-27 07:59 | 8.88712 | 3.05244 | 35952 ft | 471 kts | 325° |
| 2026-04-27 08:00 | 8.94188 | 3.01610 | 35956 ft | 470 kts | 325° |
| 2026-04-27 08:00 | 8.99660 | 2.97977 | 35959 ft | 471 kts | 325° |
| 2026-04-27 08:01 | 9.05168 | 2.94395 | 35962 ft | 471 kts | 329° |
| 2026-04-27 08:01 | 9.11236 | 2.91974 | 35976 ft | 472 kts | 351° |
| 2026-04-27 08:02 | 9.17771 | 2.91254 | 35979 ft | 473 kts | 353° |
| 2026-04-27 08:02 | 9.24295 | 2.90125 | 35971 ft | 473 kts | 347° |
| 2026-04-27 08:03 | 9.30696 | 2.88755 | 35977 ft | 474 kts | 348° |
| 2026-04-27 08:03 | 9.37175 | 2.87509 | 35985 ft | 474 kts | 349° |
| 2026-04-27 08:04 | 9.40355 | 2.86647 | 35950 ft | 472 kts | 333° |
| 2026-04-27 08:04 | 9.43099 | 2.84876 | 35998 ft | 468 kts | 316° |
| 2026-04-27 08:04 | 9.45229 | 2.82422 | 35993 ft | 464 kts | 301° |
| 2026-04-27 08:04 | 9.46682 | 2.79524 | 35994 ft | 461 kts | 288° |
| 2026-04-27 08:05 | 9.47397 | 2.76383 | 35982 ft | 457 kts | 272° |
| 2026-04-27 08:05 | 9.47451 | 2.73173 | 36007 ft | 456 kts | 267° |
| 2026-04-27 08:05 | 9.47192 | 2.66753 | 35997 ft | 457 kts | 267° |
| 2026-04-27 08:06 | 9.47200 | 2.60298 | 35999 ft | 459 kts | 269° |
| 2026-04-27 08:06 | 9.47290 | 2.53829 | 36007 ft | 460 kts | 269° |
| 2026-04-27 08:07 | 9.47315 | 2.47302 | 36009 ft | 461 kts | 268° |
| 2026-04-27 08:07 | 9.47308 | 2.40810 | 36019 ft | 461 kts | 268° |
| 2026-04-27 08:08 | 9.47301 | 2.34310 | 36024 ft | 462 kts | 268° |
| 2026-04-27 08:08 | 9.47267 | 2.27851 | 36032 ft | 461 kts | 267° |
| 2026-04-27 08:09 | 9.47093 | 2.21367 | 36035 ft | 461 kts | 266° |
| 2026-04-27 08:09 | 9.46902 | 2.14834 | 36040 ft | 461 kts | 267° |
| 2026-04-27 08:10 | 9.46735 | 2.08392 | 36038 ft | 461 kts | 267° |
| 2026-04-27 08:10 | 9.46573 | 2.01907 | 36043 ft | 460 kts | 267° |
| 2026-04-27 08:11 | 9.47437 | 1.95509 | 36071 ft | 463 kts | 294° |
| 2026-04-27 08:11 | 9.49114 | 1.92719 | 36031 ft | 466 kts | 308° |
| 2026-04-27 08:11 | 9.51412 | 1.90411 | 36059 ft | 467 kts | 322° |
| 2026-04-27 08:12 | 9.54214 | 1.88829 | 36055 ft | 469 kts | 340° |
| 2026-04-27 08:12 | 9.57369 | 1.87829 | 36064 ft | 471 kts | 344° |
| 2026-04-27 08:12 | 9.63697 | 1.86222 | 36066 ft | 473 kts | 345° |
| 2026-04-27 08:13 | 9.70039 | 1.84405 | 36059 ft | 475 kts | 342° |
| 2026-04-27 08:13 | 9.76354 | 1.82440 | 36062 ft | 476 kts | 342° |
| 2026-04-27 08:14 | 9.82705 | 1.80498 | 36055 ft | 477 kts | 342° |
| 2026-04-27 08:14 | 9.89071 | 1.78595 | 36063 ft | 477 kts | 342° |
| 2026-04-27 08:15 | 9.95441 | 1.76705 | 36066 ft | 477 kts | 342° |
| 2026-04-27 08:15 | 10.01811 | 1.74813 | 36061 ft | 477 kts | 342° |
| 2026-04-27 08:16 | 10.08178 | 1.72919 | 36066 ft | 476 kts | 342° |
| 2026-04-27 08:16 | 10.14531 | 1.71027 | 36063 ft | 476 kts | 342° |
| 2026-04-27 08:17 | 10.20878 | 1.69137 | 36064 ft | 475 kts | 342° |
| 2026-04-27 08:17 | 10.27212 | 1.67249 | 36063 ft | 474 kts | 342° |
| 2026-04-27 08:18 | 10.33528 | 1.65364 | 36060 ft | 473 kts | 342° |
| 2026-04-27 08:18 | 10.39843 | 1.63482 | 36067 ft | 473 kts | 342° |
| 2026-04-27 08:19 | 10.46154 | 1.61599 | 36057 ft | 473 kts | 342° |
| 2026-04-27 08:19 | 10.52471 | 1.59714 | 36056 ft | 473 kts | 342° |
| 2026-04-27 08:20 | 10.58789 | 1.57828 | 36056 ft | 473 kts | 342° |
| 2026-04-27 08:20 | 10.65113 | 1.55939 | 36056 ft | 474 kts | 342° |
| 2026-04-27 08:21 | 10.71445 | 1.54047 | 36051 ft | 474 kts | 342° |
| 2026-04-27 08:21 | 10.77771 | 1.52155 | 36060 ft | 474 kts | 342° |
| 2026-04-27 08:22 | 10.84111 | 1.50258 | 36048 ft | 475 kts | 342° |
| 2026-04-27 08:22 | 10.90452 | 1.48360 | 36044 ft | 475 kts | 342° |
| 2026-04-27 08:23 | 10.96786 | 1.46463 | 36045 ft | 474 kts | 342° |
| 2026-04-27 08:23 | 11.03126 | 1.44593 | 36045 ft | 475 kts | 343° |
| 2026-04-27 08:24 | 11.09505 | 1.42831 | 36043 ft | 475 kts | 343° |
| 2026-04-27 08:24 | 11.15891 | 1.41090 | 36038 ft | 475 kts | 343° |
| 2026-04-27 08:25 | 11.22278 | 1.39331 | 36037 ft | 475 kts | 343° |
| 2026-04-27 08:25 | 11.28658 | 1.37561 | 36036 ft | 475 kts | 343° |
| 2026-04-27 08:26 | 11.35033 | 1.35790 | 36042 ft | 475 kts | 343° |
| 2026-04-27 08:26 | 11.41409 | 1.34019 | 36032 ft | 475 kts | 343° |
| 2026-04-27 08:27 | 11.47783 | 1.32247 | 36024 ft | 474 kts | 343° |
| 2026-04-27 08:27 | 11.54151 | 1.30478 | 36029 ft | 474 kts | 343° |
| 2026-04-27 08:28 | 11.60515 | 1.28709 | 36030 ft | 474 kts | 343° |
| 2026-04-27 08:28 | 11.66875 | 1.26939 | 36025 ft | 474 kts | 343° |
| 2026-04-27 08:29 | 11.73238 | 1.25168 | 36026 ft | 474 kts | 343° |
| 2026-04-27 08:29 | 11.79590 | 1.23397 | 36019 ft | 473 kts | 343° |
| 2026-04-27 08:30 | 11.84915 | 1.21916 | 36018 ft | 473 kts | 343° |
| 2026-04-27 08:30 | 11.91269 | 1.20145 | 36020 ft | 473 kts | 343° |
| 2026-04-27 08:31 | 11.97624 | 1.18372 | 36018 ft | 473 kts | 343° |
| 2026-04-27 08:31 | 12.03937 | 1.16610 | 36023 ft | 474 kts | 343° |
| 2026-04-27 08:32 | 12.10302 | 1.14834 | 36018 ft | 474 kts | 343° |
| 2026-04-27 08:32 | 12.16710 | 1.13046 | 36017 ft | 474 kts | 343° |
| 2026-04-27 08:33 | 12.23034 | 1.11282 | 36010 ft | 474 kts | 343° |
| 2026-04-27 08:33 | 12.29403 | 1.09506 | 36009 ft | 474 kts | 343° |
| 2026-04-27 08:34 | 12.35773 | 1.07728 | 36015 ft | 475 kts | 343° |
| 2026-04-27 08:34 | 12.42138 | 1.05947 | 36005 ft | 475 kts | 343° |
| 2026-04-27 08:35 | 12.48508 | 1.04166 | 36003 ft | 474 kts | 343° |
| 2026-04-27 08:35 | 12.54871 | 1.02386 | 35928 ft | 475 kts | 342° |
| 2026-04-27 08:36 | 12.58072 | 1.01490 | 35649 ft | 476 kts | 342° |
| 2026-04-27 08:36 | 12.61259 | 1.00598 | 35403 ft | 473 kts | 342° |
| 2026-04-27 08:36 | 12.64425 | 0.99712 | 35159 ft | 472 kts | 342° |
| 2026-04-27 08:36 | 12.67591 | 0.98825 | 34915 ft | 472 kts | 342° |
| 2026-04-27 08:37 | 12.70763 | 0.97936 | 34669 ft | 472 kts | 342° |
| 2026-04-27 08:37 | 12.73932 | 0.97048 | 34423 ft | 473 kts | 342° |
| 2026-04-27 08:37 | 12.77102 | 0.96159 | 34179 ft | 473 kts | 342° |
| 2026-04-27 08:37 | 12.80276 | 0.95269 | 33931 ft | 472 kts | 342° |
| 2026-04-27 08:38 | 12.83444 | 0.94381 | 33686 ft | 472 kts | 342° |
| 2026-04-27 08:38 | 12.86611 | 0.93493 | 32974 ft | 473 kts | 342° |
| 2026-04-27 08:38 | 12.89770 | 0.92606 | 32556 ft | 467 kts | 342° |
| 2026-04-27 08:38 | 12.92895 | 0.91729 | 32007 ft | 464 kts | 342° |
| 2026-04-27 08:39 | 12.95997 | 0.90859 | 31512 ft | 461 kts | 342° |
| 2026-04-27 08:39 | 12.99085 | 0.90012 | 31004 ft | 458 kts | 345° |
| 2026-04-27 08:39 | 13.02230 | 0.89524 | 30482 ft | 459 kts | 358° |
| 2026-04-27 08:39 | 13.05372 | 0.90041 | 29990 ft | 460 kts | 19° |
| 2026-04-27 08:40 | 13.08134 | 0.91661 | 29537 ft | 460 kts | 40° |
| 2026-04-27 08:40 | 13.10191 | 0.94156 | 29014 ft | 459 kts | 58° |
| 2026-04-27 08:40 | 13.11605 | 0.97084 | 28474 ft | 457 kts | 68° |
| 2026-04-27 08:40 | 13.12633 | 1.00158 | 27946 ft | 455 kts | 73° |
| 2026-04-27 08:41 | 13.13487 | 1.03268 | 27438 ft | 451 kts | 75° |
| 2026-04-27 08:41 | 13.14290 | 1.06364 | 26973 ft | 447 kts | 75° |
| 2026-04-27 08:41 | 13.15107 | 1.09429 | 26507 ft | 443 kts | 74° |
| 2026-04-27 08:41 | 13.15952 | 1.12457 | 26048 ft | 440 kts | 73° |
| 2026-04-27 08:42 | 13.16822 | 1.15449 | 25592 ft | 436 kts | 72° |
| 2026-04-27 08:42 | 13.17705 | 1.18409 | 25138 ft | 432 kts | 72° |
| 2026-04-27 08:42 | 13.18591 | 1.21345 | 24656 ft | 429 kts | 72° |
| 2026-04-27 08:42 | 13.19471 | 1.24251 | 24209 ft | 424 kts | 72° |
| 2026-04-27 08:43 | 13.20343 | 1.27132 | 23730 ft | 422 kts | 72° |
| 2026-04-27 08:43 | 13.21210 | 1.29997 | 23264 ft | 418 kts | 72° |
| 2026-04-27 08:43 | 13.22067 | 1.32832 | 22877 ft | 413 kts | 72° |
| 2026-04-27 08:43 | 13.22910 | 1.35631 | 22469 ft | 409 kts | 72° |
| 2026-04-27 08:44 | 13.23744 | 1.38399 | 21950 ft | 402 kts | 72° |
| 2026-04-27 08:44 | 13.24564 | 1.41125 | 21335 ft | 398 kts | 72° |
| 2026-04-27 08:44 | 13.25376 | 1.43826 | 20720 ft | 393 kts | 72° |
| 2026-04-27 08:44 | 13.26177 | 1.46492 | 20125 ft | 389 kts | 72° |
| 2026-04-27 08:45 | 13.26968 | 1.49122 | 19574 ft | 383 kts | 72° |
| 2026-04-27 08:45 | 13.27746 | 1.51715 | 19000 ft | 378 kts | 72° |
| 2026-04-27 08:45 | 13.28515 | 1.54277 | 18427 ft | 373 kts | 72° |
| 2026-04-27 08:45 | 13.29273 | 1.56805 | 17877 ft | 368 kts | 72° |
| 2026-04-27 08:46 | 13.30020 | 1.59296 | 17302 ft | 363 kts | 72° |
| 2026-04-27 08:46 | 13.30761 | 1.61762 | 16728 ft | 360 kts | 72° |
| 2026-04-27 08:46 | 13.31496 | 1.64214 | 16201 ft | 359 kts | 72° |
| 2026-04-27 08:46 | 13.32230 | 1.66666 | 15699 ft | 359 kts | 72° |
| 2026-04-27 08:47 | 13.32958 | 1.69096 | 15256 ft | 353 kts | 72° |
| 2026-04-27 08:47 | 13.33677 | 1.71498 | 14831 ft | 351 kts | 72° |
| 2026-04-27 08:47 | 13.34392 | 1.73884 | 14408 ft | 348 kts | 72° |
| 2026-04-27 08:47 | 13.35090 | 1.76254 | 13995 ft | 345 kts | 74° |
| 2026-04-27 08:48 | 13.35576 | 1.78646 | 13651 ft | 339 kts | 81° |
| 2026-04-27 08:48 | 13.35846 | 1.81029 | 13323 ft | 334 kts | 85° |
| 2026-04-27 08:48 | 13.35972 | 1.83404 | 13002 ft | 333 kts | 88° |
| 2026-04-27 08:48 | 13.36021 | 1.85779 | 12696 ft | 332 kts | 88° |
| 2026-04-27 08:49 | 13.36072 | 1.88149 | 12358 ft | 332 kts | 88° |
| 2026-04-27 08:49 | 13.36148 | 1.90518 | 12036 ft | 332 kts | 87° |
| 2026-04-27 08:49 | 13.36251 | 1.92886 | 11709 ft | 330 kts | 87° |
| 2026-04-27 08:49 | 13.36371 | 1.95222 | 11401 ft | 326 kts | 86° |
| 2026-04-27 08:50 | 13.36502 | 1.97522 | 11063 ft | 319 kts | 86° |
| 2026-04-27 08:50 | 13.36635 | 1.99768 | 10756 ft | 311 kts | 86° |
| 2026-04-27 08:50 | 13.36770 | 2.01959 | 10459 ft | 304 kts | 86° |
| 2026-04-27 08:50 | 13.36905 | 2.04113 | 10166 ft | 301 kts | 86° |
| 2026-04-27 08:51 | 13.37039 | 2.06243 | 9936 ft | 295 kts | 86° |
| 2026-04-27 08:51 | 13.37169 | 2.08299 | 9785 ft | 286 kts | 86° |
| 2026-04-27 08:51 | 13.37297 | 2.10356 | 9393 ft | 289 kts | 86° |
| 2026-04-27 08:51 | 13.37427 | 2.12416 | 9061 ft | 288 kts | 86° |
| 2026-04-27 08:52 | 13.37553 | 2.14455 | 8770 ft | 285 kts | 86° |
| 2026-04-27 08:52 | 13.37679 | 2.16468 | 8472 ft | 281 kts | 86° |
| 2026-04-27 08:52 | 13.37803 | 2.18462 | 8216 ft | 279 kts | 86° |
| 2026-04-27 08:52 | 13.37925 | 2.20441 | 7952 ft | 277 kts | 86° |
| 2026-04-27 08:53 | 13.38048 | 2.22415 | 7671 ft | 277 kts | 87° |
| 2026-04-27 08:53 | 13.38171 | 2.24391 | 7385 ft | 277 kts | 87° |
| 2026-04-27 08:53 | 13.38295 | 2.26358 | 7117 ft | 275 kts | 87° |
| 2026-04-27 08:53 | 13.38414 | 2.28308 | 6864 ft | 273 kts | 87° |
| 2026-04-27 08:54 | 13.38535 | 2.30272 | 6436 ft | 277 kts | 87° |
| 2026-04-27 08:54 | 13.38659 | 2.32248 | 6111 ft | 279 kts | 87° |
| 2026-04-27 08:54 | 13.38780 | 2.34227 | 5825 ft | 278 kts | 87° |
| 2026-04-27 08:54 | 13.38902 | 2.36203 | 5526 ft | 277 kts | 87° |
| 2026-04-27 08:55 | 13.39046 | 2.38146 | 5396 ft | 270 kts | 82° |
| 2026-04-27 08:55 | 13.39712 | 2.39901 | 5252 ft | 263 kts | 51° |
| 2026-04-27 08:55 | 13.41126 | 2.41039 | 5033 ft | 260 kts | 23° |
| 2026-04-27 08:55 | 13.42857 | 2.41472 | 4817 ft | 254 kts | 2° |
| 2026-04-27 08:56 | 13.44588 | 2.41451 | 4721 ft | 245 kts | 356° |
| 2026-04-27 08:56 | 13.46280 | 2.41333 | 4479 ft | 243 kts | 351° |
| 2026-04-27 08:56 | 13.47839 | 2.40750 | 4258 ft | 238 kts | 320° |
| 2026-04-27 08:56 | 13.48837 | 2.39447 | 4028 ft | 233 kts | 289° |
| 2026-04-27 08:57 | 13.49023 | 2.36240 | 3544 ft | 227 kts | 265° |
| 2026-04-27 08:57 | 13.48944 | 2.34612 | 3274 ft | 227 kts | 265° |
| 2026-04-27 08:57 | 13.48876 | 2.33002 | 3041 ft | 225 kts | 265° |
| 2026-04-27 08:58 | 13.48810 | 2.31404 | 2801 ft | 219 kts | 265° |
| 2026-04-27 08:58 | 13.48748 | 2.29919 | 2697 ft | 197 kts | 265° |
| 2026-04-27 08:58 | 13.48694 | 2.28577 | 2703 ft | 181 kts | 265° |
| 2026-04-27 08:58 | 13.48638 | 2.27333 | 2659 ft | 170 kts | 265° |
| 2026-04-27 08:59 | 13.48534 | 2.26125 | 2564 ft | 168 kts | 262° |
| 2026-04-27 08:59 | 13.48409 | 2.24920 | 2063 ft | 167 kts | 262° |
| 2026-04-27 08:59 | 13.48338 | 2.23754 | 1658 ft | 160 kts | 268° |
| 2026-04-27 08:59 | 13.48369 | 2.22665 | 1393 ft | 151 kts | 271° |
| 2026-04-27 09:00 | 13.48350 | 2.21574 | 1103 ft | 147 kts | 265° |
| 2026-04-27 09:00 | 13.48306 | 2.20575 | 850 ft | 132 kts | 267° |
| 2026-04-27 09:00 | 13.48271 | 2.19694 | 712 ft | 113 kts | 267° |
| 2026-04-27 09:00 | 13.48235 | 2.19017 | 716 ft | 80 kts | 266° |
| 2026-04-27 09:01 | 13.48214 | 2.18483 | 724 ft | 70 kts | 269° |
| 2026-04-27 09:01 | 13.48208 | 2.18013 | 728 ft | 62 kts | 267° |
| 2026-04-27 09:01 | 13.48191 | 2.17713 | 728 ft | 28 kts | 257° |
| 2026-04-27 09:01 | 13.48040 | 2.17644 | 729 ft | 26 kts | 176° |
| 2026-04-27 09:02 | 13.47872 | 2.17654 | 729 ft | 22 kts | 176° |
| 2026-04-27 09:02 | 13.47792 | 2.17679 | 729 ft | 0 kts | 133° |